PGT184 LTAI-EDDK
Flight info
| Callsign | PGT184 |
|---|---|
| Flight time | N/A |
| Altitude | 34000 |
| Route | EVBOL1F/36R EVBOL UT489 IMR UN127 RIKSO DCT DISOR DCT LONTA UL608 DOLEV DCT PODOB DCT BOSNA/N0454F360 DCT OKSIG DCT KOMAR DCT KUSIB DCT GORPA DCT ERKIR L608 KOVAN T844 ASKIK T840 GULKO |
| Aircraft | A320/M-SDE3FGHIRWY/LB1 |
Departure
| Time | N/A |
|---|---|
| Airport | Antalya International Airport (LTAI) |
Arrival
| Time | 2026-02-18 21:35 |
|---|---|
| Airport | Cologne Bonn Airport (EDDK) |
| Time | Latitude | Longitude | Altitude | Speed | Heading |
|---|---|---|---|---|---|
| 2026-02-18 20:40 | 48.54360 | 9.35593 | 33776 ft | 399 kts | 310° |
| 2026-02-18 20:41 | 48.60730 | 9.27438 | 33780 ft | 403 kts | 314° |
| 2026-02-18 20:41 | 48.63123 | 9.25139 | 33781 ft | 414 kts | 323° |
| 2026-02-18 20:41 | 48.65782 | 9.23320 | 33781 ft | 419 kts | 326° |
| 2026-02-18 20:42 | 48.71132 | 9.19807 | 33784 ft | 419 kts | 326° |
| 2026-02-18 20:42 | 48.76479 | 9.16267 | 33783 ft | 420 kts | 326° |
| 2026-02-18 20:43 | 48.81836 | 9.12700 | 33742 ft | 422 kts | 326° |
| 2026-02-18 20:43 | 48.84535 | 9.10895 | 33189 ft | 425 kts | 326° |
| 2026-02-18 20:43 | 48.87245 | 9.09084 | 32629 ft | 427 kts | 327° |
| 2026-02-18 20:44 | 48.90064 | 9.07499 | 32097 ft | 436 kts | 333° |
| 2026-02-18 20:44 | 48.92955 | 9.06059 | 31572 ft | 439 kts | 333° |
| 2026-02-18 20:44 | 48.95863 | 9.04608 | 31081 ft | 441 kts | 334° |
| 2026-02-18 20:44 | 48.98786 | 9.03142 | 30560 ft | 443 kts | 334° |
| 2026-02-18 20:45 | 49.04675 | 9.00176 | 29524 ft | 448 kts | 335° |
| 2026-02-18 20:45 | 49.07637 | 8.98681 | 28941 ft | 449 kts | 335° |
| 2026-02-18 20:45 | 49.10610 | 8.97177 | 28385 ft | 451 kts | 335° |
| 2026-02-18 20:46 | 49.13594 | 8.95668 | 27829 ft | 452 kts | 335° |
| 2026-02-18 20:46 | 49.16581 | 8.94156 | 27287 ft | 454 kts | 336° |
| 2026-02-18 20:46 | 49.19584 | 8.92629 | 26773 ft | 454 kts | 336° |
| 2026-02-18 20:46 | 49.22586 | 8.91097 | 26258 ft | 454 kts | 336° |
| 2026-02-18 20:47 | 49.25583 | 8.89565 | 25744 ft | 455 kts | 336° |
| 2026-02-18 20:47 | 49.28604 | 8.88024 | 25247 ft | 459 kts | 337° |
| 2026-02-18 20:47 | 49.31680 | 8.86452 | 24746 ft | 461 kts | 337° |
| 2026-02-18 20:47 | 49.34691 | 8.84913 | 24268 ft | 463 kts | 337° |
| 2026-02-18 20:48 | 49.37748 | 8.83351 | 23894 ft | 463 kts | 338° |
| 2026-02-18 20:48 | 49.40812 | 8.81807 | 23762 ft | 464 kts | 339° |
| 2026-02-18 20:48 | 49.43904 | 8.80362 | 23800 ft | 464 kts | 339° |
| 2026-02-18 20:48 | 49.47013 | 8.79006 | 23811 ft | 464 kts | 340° |
| 2026-02-18 20:49 | 49.53247 | 8.76386 | 23812 ft | 465 kts | 340° |
| 2026-02-18 20:49 | 49.56367 | 8.75067 | 23805 ft | 465 kts | 340° |
| 2026-02-18 20:49 | 49.59451 | 8.73740 | 23810 ft | 465 kts | 340° |
| 2026-02-18 20:50 | 49.62566 | 8.72378 | 23814 ft | 465 kts | 340° |
| 2026-02-18 20:50 | 49.65678 | 8.71006 | 23817 ft | 464 kts | 340° |
| 2026-02-18 20:50 | 49.68327 | 8.69831 | 23820 ft | 463 kts | 340° |
| 2026-02-18 20:50 | 49.71422 | 8.68454 | 23806 ft | 463 kts | 340° |
| 2026-02-18 20:51 | 49.74516 | 8.67079 | 23811 ft | 463 kts | 340° |
| 2026-02-18 20:51 | 49.77617 | 8.65705 | 23814 ft | 463 kts | 340° |
| 2026-02-18 20:51 | 49.80718 | 8.64327 | 23829 ft | 463 kts | 340° |
| 2026-02-18 20:51 | 49.83815 | 8.62948 | 23836 ft | 463 kts | 340° |
| 2026-02-18 20:52 | 49.86911 | 8.61572 | 23832 ft | 463 kts | 340° |
| 2026-02-18 20:52 | 49.90007 | 8.60198 | 23826 ft | 461 kts | 340° |
| 2026-02-18 20:52 | 49.93089 | 8.58828 | 23838 ft | 461 kts | 340° |
| 2026-02-18 20:52 | 49.96166 | 8.57455 | 23839 ft | 460 kts | 340° |
| 2026-02-18 20:53 | 50.02321 | 8.54696 | 23838 ft | 460 kts | 339° |
| 2026-02-18 20:53 | 50.05397 | 8.53307 | 23838 ft | 460 kts | 339° |
| 2026-02-18 20:53 | 50.08449 | 8.51830 | 23837 ft | 459 kts | 338° |
| 2026-02-18 20:54 | 50.11474 | 8.50234 | 23849 ft | 458 kts | 336° |
| 2026-02-18 20:54 | 50.14482 | 8.48568 | 23840 ft | 458 kts | 336° |
| 2026-02-18 20:54 | 50.17431 | 8.46911 | 23837 ft | 439 kts | 335° |
| 2026-02-18 20:54 | 50.20231 | 8.45354 | 23841 ft | 417 kts | 336° |
| 2026-02-18 20:55 | 50.22900 | 8.43896 | 23846 ft | 396 kts | 336° |
| 2026-02-18 20:55 | 50.25444 | 8.42519 | 23847 ft | 377 kts | 335° |
| 2026-02-18 20:55 | 50.27862 | 8.41155 | 23744 ft | 360 kts | 332° |
| 2026-02-18 20:55 | 50.30064 | 8.39499 | 23639 ft | 343 kts | 325° |
| 2026-02-18 20:56 | 50.32057 | 8.37577 | 23418 ft | 332 kts | 322° |
| 2026-02-18 20:56 | 50.33989 | 8.35641 | 23004 ft | 328 kts | 322° |
| 2026-02-18 20:56 | 50.35818 | 8.33819 | 22598 ft | 325 kts | 322° |
| 2026-02-18 20:58 | 50.36459 | 8.33183 | 22420 ft | 325 kts | 322° |
| 2026-02-18 20:58 | 50.38273 | 8.31377 | 21879 ft | 327 kts | 326° |
| 2026-02-18 20:58 | 50.40202 | 8.29454 | 21396 ft | 327 kts | 322° |
| 2026-02-18 20:59 | 50.42105 | 8.27556 | 21041 ft | 322 kts | 322° |
| 2026-02-18 20:59 | 50.43986 | 8.25671 | 20643 ft | 320 kts | 322° |
| 2026-02-18 20:59 | 50.45851 | 8.23800 | 20235 ft | 318 kts | 321° |
| 2026-02-18 20:59 | 50.47710 | 8.21933 | 19829 ft | 316 kts | 321° |
| 2026-02-18 21:00 | 50.49557 | 8.20075 | 19423 ft | 315 kts | 321° |
| 2026-02-18 21:00 | 50.51400 | 8.18222 | 18948 ft | 316 kts | 321° |
| 2026-02-18 21:00 | 50.53263 | 8.16344 | 18403 ft | 321 kts | 321° |
| 2026-02-18 21:00 | 50.54511 | 8.15081 | 18024 ft | 323 kts | 321° |
| 2026-02-18 21:01 | 50.57678 | 8.10311 | 16769 ft | 315 kts | 290° |
| 2026-02-18 21:01 | 50.58395 | 8.07056 | 16163 ft | 314 kts | 284° |
| 2026-02-18 21:01 | 50.59000 | 8.03797 | 15563 ft | 306 kts | 284° |
| 2026-02-18 21:02 | 50.59576 | 8.00608 | 14966 ft | 300 kts | 284° |
| 2026-02-18 21:02 | 50.60131 | 7.97476 | 14393 ft | 294 kts | 284° |
| 2026-02-18 21:02 | 50.60676 | 7.94351 | 13830 ft | 290 kts | 284° |
| 2026-02-18 21:02 | 50.61199 | 7.91310 | 13244 ft | 287 kts | 283° |
| 2026-02-18 21:03 | 50.61732 | 7.88343 | 12627 ft | 284 kts | 283° |
| 2026-02-18 21:03 | 50.62290 | 7.85309 | 12008 ft | 286 kts | 282° |
| 2026-02-18 21:03 | 50.62826 | 7.82322 | 11357 ft | 289 kts | 282° |
| 2026-02-18 21:03 | 50.63393 | 7.79238 | 10876 ft | 290 kts | 283° |
| 2026-02-18 21:04 | 50.63965 | 7.76235 | 10775 ft | 281 kts | 283° |
| 2026-02-18 21:04 | 50.64532 | 7.73369 | 10784 ft | 268 kts | 283° |
| 2026-02-18 21:04 | 50.65085 | 7.70594 | 10795 ft | 264 kts | 283° |
| 2026-02-18 21:04 | 50.65632 | 7.67846 | 10799 ft | 262 kts | 287° |
| 2026-02-18 21:05 | 50.66677 | 7.62362 | 10793 ft | 261 kts | 285° |
| 2026-02-18 21:05 | 50.67173 | 7.59615 | 10800 ft | 261 kts | 286° |
| 2026-02-18 21:05 | 50.67651 | 7.57068 | 10802 ft | 261 kts | 282° |
| 2026-02-18 21:06 | 50.68185 | 7.54328 | 10806 ft | 261 kts | 285° |
| 2026-02-18 21:06 | 50.68703 | 7.51578 | 10807 ft | 262 kts | 285° |
| 2026-02-18 21:06 | 50.69208 | 7.48832 | 10792 ft | 260 kts | 283° |
| 2026-02-18 21:06 | 50.69706 | 7.46085 | 10786 ft | 260 kts | 283° |
| 2026-02-18 21:07 | 50.70215 | 7.43350 | 10779 ft | 260 kts | 283° |
| 2026-02-18 21:07 | 50.70721 | 7.40646 | 10777 ft | 260 kts | 281° |
| 2026-02-18 21:07 | 50.71260 | 7.37917 | 10774 ft | 260 kts | 285° |
| 2026-02-18 21:07 | 50.71772 | 7.35183 | 10772 ft | 260 kts | 283° |
| 2026-02-18 21:08 | 50.72299 | 7.32449 | 10774 ft | 261 kts | 283° |
| 2026-02-18 21:08 | 50.72847 | 7.29721 | 10765 ft | 261 kts | 282° |
| 2026-02-18 21:08 | 50.73397 | 7.26991 | 10759 ft | 260 kts | 284° |
| 2026-02-18 21:08 | 50.73917 | 7.24222 | 10758 ft | 260 kts | 285° |
| 2026-02-18 21:09 | 50.74976 | 7.18789 | 10764 ft | 261 kts | 283° |
| 2026-02-18 21:09 | 50.75469 | 7.16044 | 10756 ft | 258 kts | 272° |
| 2026-02-18 21:09 | 50.75411 | 7.13511 | 10756 ft | 252 kts | 256° |
| 2026-02-18 21:10 | 50.75087 | 7.10807 | 10757 ft | 251 kts | 255° |
| 2026-02-18 21:10 | 50.74701 | 7.08145 | 10758 ft | 252 kts | 253° |
| 2026-02-18 21:10 | 50.74310 | 7.05418 | 10757 ft | 251 kts | 255° |
| 2026-02-18 21:10 | 50.73903 | 7.02721 | 10771 ft | 253 kts | 254° |
| 2026-02-18 21:11 | 50.73809 | 6.99992 | 10755 ft | 256 kts | 281° |
| 2026-02-18 21:11 | 50.74581 | 6.97462 | 10753 ft | 262 kts | 309° |
| 2026-02-18 21:11 | 50.76074 | 6.95794 | 10756 ft | 268 kts | 339° |
| 2026-02-18 21:11 | 50.77914 | 6.95443 | 10761 ft | 271 kts | 8° |
| 2026-02-18 21:12 | 50.79658 | 6.96515 | 10756 ft | 272 kts | 39° |
| 2026-02-18 21:12 | 50.80869 | 6.98738 | 10753 ft | 267 kts | 69° |
| 2026-02-18 21:12 | 50.81249 | 7.01572 | 10753 ft | 259 kts | 98° |
| 2026-02-18 21:12 | 50.80729 | 7.04185 | 10750 ft | 251 kts | 129° |
| 2026-02-18 21:13 | 50.77880 | 7.06459 | 10750 ft | 235 kts | 187° |
| 2026-02-18 21:13 | 50.76356 | 7.05506 | 10752 ft | 241 kts | 218° |
| 2026-02-18 21:14 | 50.74839 | 7.00770 | 10758 ft | 250 kts | 252° |
| 2026-02-18 21:14 | 50.74411 | 6.98112 | 10754 ft | 250 kts | 253° |
| 2026-02-18 21:14 | 50.73994 | 6.95419 | 10754 ft | 249 kts | 253° |
| 2026-02-18 21:14 | 50.73586 | 6.92756 | 10749 ft | 250 kts | 252° |
| 2026-02-18 21:15 | 50.73187 | 6.90098 | 10731 ft | 249 kts | 253° |
| 2026-02-18 21:15 | 50.72801 | 6.87469 | 10730 ft | 248 kts | 253° |
| 2026-02-18 21:15 | 50.72403 | 6.84809 | 10729 ft | 250 kts | 253° |
| 2026-02-18 21:15 | 50.72011 | 6.82105 | 10728 ft | 250 kts | 258° |
| 2026-02-18 21:16 | 50.72150 | 6.79400 | 10721 ft | 256 kts | 288° |
| 2026-02-18 21:16 | 50.73117 | 6.77050 | 10459 ft | 261 kts | 317° |
| 2026-02-18 21:16 | 50.74722 | 6.75700 | 10103 ft | 266 kts | 346° |
| 2026-02-18 21:16 | 50.76562 | 6.75735 | 9764 ft | 267 kts | 18° |
| 2026-02-18 21:17 | 50.79167 | 6.79467 | 9075 ft | 256 kts | 66° |
| 2026-02-18 21:17 | 50.79959 | 6.81979 | 8740 ft | 254 kts | 69° |
| 2026-02-18 21:17 | 50.80743 | 6.84518 | 8419 ft | 252 kts | 68° |
| 2026-02-18 21:18 | 50.81506 | 6.87004 | 8117 ft | 250 kts | 69° |
| 2026-02-18 21:18 | 50.82265 | 6.89468 | 7824 ft | 248 kts | 69° |
| 2026-02-18 21:18 | 50.83021 | 6.91896 | 7747 ft | 246 kts | 68° |
| 2026-02-18 21:18 | 50.83777 | 6.94327 | 7752 ft | 247 kts | 68° |
| 2026-02-18 21:19 | 50.84532 | 6.96769 | 7754 ft | 247 kts | 68° |
| 2026-02-18 21:19 | 50.85290 | 6.99214 | 7755 ft | 247 kts | 68° |
| 2026-02-18 21:19 | 50.86047 | 7.01658 | 7754 ft | 247 kts | 68° |
| 2026-02-18 21:19 | 50.86802 | 7.04104 | 7755 ft | 247 kts | 69° |
| 2026-02-18 21:20 | 50.87557 | 7.06546 | 7739 ft | 247 kts | 69° |
| 2026-02-18 21:20 | 50.88318 | 7.08978 | 7750 ft | 246 kts | 69° |
| 2026-02-18 21:20 | 50.89076 | 7.11399 | 7754 ft | 245 kts | 69° |
| 2026-02-18 21:20 | 50.89826 | 7.13787 | 7755 ft | 245 kts | 69° |
| 2026-02-18 21:21 | 50.91359 | 7.18654 | 7756 ft | 245 kts | 68° |
| 2026-02-18 21:21 | 50.92108 | 7.21048 | 7755 ft | 246 kts | 69° |
| 2026-02-18 21:21 | 50.92880 | 7.23503 | 7755 ft | 245 kts | 68° |
| 2026-02-18 21:22 | 50.93631 | 7.25894 | 7665 ft | 245 kts | 68° |
| 2026-02-18 21:22 | 50.94400 | 7.28344 | 7514 ft | 245 kts | 68° |
| 2026-02-18 21:22 | 50.95308 | 7.30628 | 7360 ft | 250 kts | 48° |
| 2026-02-18 21:22 | 50.96819 | 7.32027 | 7216 ft | 258 kts | 17° |
| 2026-02-18 21:23 | 50.98614 | 7.32081 | 7055 ft | 262 kts | 349° |
| 2026-02-18 21:23 | 51.00388 | 7.31348 | 6907 ft | 264 kts | 344° |
| 2026-02-18 21:23 | 51.02146 | 7.30500 | 6791 ft | 265 kts | 343° |
| 2026-02-18 21:23 | 51.03850 | 7.29434 | 6757 ft | 264 kts | 326° |
| 2026-02-18 21:24 | 51.05169 | 7.27433 | 6620 ft | 261 kts | 307° |
| 2026-02-18 21:24 | 51.06272 | 7.25143 | 6244 ft | 261 kts | 304° |
| 2026-02-18 21:24 | 51.07349 | 7.22810 | 5868 ft | 262 kts | 303° |
| 2026-02-18 21:24 | 51.08392 | 7.20546 | 5526 ft | 262 kts | 303° |
| 2026-02-18 21:25 | 51.10484 | 7.16019 | 5011 ft | 261 kts | 303° |
| 2026-02-18 21:25 | 51.11320 | 7.13503 | 5016 ft | 256 kts | 280° |
| 2026-02-18 21:25 | 51.11693 | 7.10747 | 5026 ft | 255 kts | 274° |
| 2026-02-18 21:26 | 51.11988 | 7.07971 | 5013 ft | 254 kts | 274° |
| 2026-02-18 21:26 | 51.12266 | 7.05199 | 5026 ft | 254 kts | 271° |
| 2026-02-18 21:26 | 51.12124 | 7.02508 | 5023 ft | 234 kts | 242° |
| 2026-02-18 21:26 | 51.11480 | 7.00256 | 5018 ft | 217 kts | 234° |
| 2026-02-18 21:27 | 51.10791 | 6.98150 | 5020 ft | 214 kts | 233° |
| 2026-02-18 21:27 | 51.10095 | 6.96056 | 5008 ft | 213 kts | 233° |
| 2026-02-18 21:27 | 51.09400 | 6.93977 | 5008 ft | 213 kts | 233° |
| 2026-02-18 21:27 | 51.08704 | 6.91896 | 5008 ft | 213 kts | 233° |
| 2026-02-18 21:28 | 51.08010 | 6.89820 | 5006 ft | 210 kts | 232° |
| 2026-02-18 21:28 | 51.07118 | 6.88220 | 4976 ft | 181 kts | 200° |
| 2026-02-18 21:28 | 51.05987 | 6.87782 | 4870 ft | 159 kts | 172° |
| 2026-02-18 21:28 | 51.04987 | 6.88275 | 4775 ft | 147 kts | 147° |
| 2026-02-18 21:29 | 51.03446 | 6.90444 | 4511 ft | 147 kts | 139° |
| 2026-02-18 21:29 | 51.02697 | 6.91544 | 4324 ft | 146 kts | 139° |
| 2026-02-18 21:29 | 51.01957 | 6.92629 | 4122 ft | 144 kts | 139° |
| 2026-02-18 21:30 | 51.01225 | 6.93700 | 3926 ft | 142 kts | 139° |
| 2026-02-18 21:30 | 51.00502 | 6.94757 | 3727 ft | 140 kts | 138° |
| 2026-02-18 21:30 | 50.99789 | 6.95800 | 3539 ft | 139 kts | 137° |
| 2026-02-18 21:30 | 50.99081 | 6.96835 | 3342 ft | 137 kts | 137° |
| 2026-02-18 21:31 | 50.98386 | 6.97849 | 3155 ft | 135 kts | 137° |
| 2026-02-18 21:31 | 50.97701 | 6.98851 | 2963 ft | 133 kts | 137° |
| 2026-02-18 21:31 | 50.97019 | 6.99846 | 2783 ft | 133 kts | 136° |
| 2026-02-18 21:31 | 50.96340 | 7.00837 | 2604 ft | 133 kts | 136° |
| 2026-02-18 21:32 | 50.95662 | 7.01825 | 2412 ft | 133 kts | 135° |
| 2026-02-18 21:32 | 50.94982 | 7.02816 | 2223 ft | 132 kts | 135° |
| 2026-02-18 21:32 | 50.94299 | 7.03811 | 2027 ft | 134 kts | 135° |
| 2026-02-18 21:32 | 50.93606 | 7.04820 | 1838 ft | 136 kts | 135° |
| 2026-02-18 21:33 | 50.91976 | 7.06718 | 1813 ft | 149 kts | 150° |
| 2026-02-18 21:33 | 50.91029 | 7.07235 | 1671 ft | 138 kts | 155° |
| 2026-02-18 21:33 | 50.90156 | 7.07781 | 1289 ft | 132 kts | 147° |
| 2026-02-18 21:34 | 50.89461 | 7.08646 | 964 ft | 127 kts | 134° |
| 2026-02-18 21:34 | 50.88797 | 7.09610 | 729 ft | 127 kts | 134° |
| 2026-02-18 21:34 | 50.88144 | 7.10564 | 559 ft | 128 kts | 135° |
| 2026-02-18 21:34 | 50.87483 | 7.11501 | 382 ft | 126 kts | 135° |
| 2026-02-18 21:35 | 50.86846 | 7.12440 | 242 ft | 123 kts | 135° |
| 2026-02-18 21:35 | 50.86477 | 7.12972 | 247 ft | 84 kts | 138° |
| 2026-02-18 21:35 | 50.86262 | 7.13278 | 252 ft | 8 kts | 138° |
| 2026-02-18 21:35 | 50.86192 | 7.13380 | 254 ft | 16 kts | 137° |
| 2026-02-18 21:36 | 50.86118 | 7.13489 | 258 ft | 13 kts | 138° |
| 2026-02-18 21:36 | 50.86036 | 7.13605 | 262 ft | 11 kts | 137° |
| 2026-02-18 21:36 | 50.85998 | 7.13660 | 264 ft | 11 kts | 137° |
| 2026-02-18 21:36 | 50.85943 | 7.13739 | 267 ft | 10 kts | 137° |
| 2026-02-18 21:37 | 50.85869 | 7.13849 | 268 ft | 7 kts | 15° |
| 2026-02-18 21:37 | 50.85903 | 7.13801 | 268 ft | 8 kts | 315° |
| 2026-02-18 21:37 | 50.85967 | 7.13705 | 265 ft | 18 kts | 316° |
| 2026-02-18 21:38 | 50.86085 | 7.13535 | 259 ft | 26 kts | 317° |
| 2026-02-18 21:38 | 50.86221 | 7.13339 | 252 ft | 25 kts | 317° |
| 2026-02-18 21:38 | 50.86268 | 7.13272 | 252 ft | 6 kts | 324° |
| 2026-02-18 21:38 | 50.86295 | 7.13313 | 252 ft | 10 kts | 59° |
| 2026-02-18 21:39 | 50.86333 | 7.13421 | 252 ft | 12 kts | 45° |
| 2026-02-18 21:39 | 50.86407 | 7.13418 | 252 ft | 11 kts | 319° |
| 2026-02-18 21:39 | 50.86437 | 7.13375 | 251 ft | 4 kts | 318° |
| 2026-02-18 21:39 | 50.86456 | 7.13348 | 250 ft | 1 kts | 319° |
| 2026-02-18 21:40 | 50.86472 | 7.13325 | 250 ft | 5 kts | 318° |
| 2026-02-18 21:40 | 50.86508 | 7.13275 | 249 ft | 8 kts | 317° |
| 2026-02-18 21:40 | 50.86550 | 7.13211 | 249 ft | 9 kts | 317° |
| 2026-02-18 21:40 | 50.86599 | 7.13139 | 247 ft | 10 kts | 317° |
| 2026-02-18 21:41 | 50.86754 | 7.12918 | 242 ft | 19 kts | 318° |
| 2026-02-18 21:41 | 50.86860 | 7.12772 | 239 ft | 22 kts | 317° |
| 2026-02-18 21:41 | 50.86973 | 7.12598 | 237 ft | 24 kts | 319° |
| 2026-02-18 21:42 | 50.87102 | 7.12415 | 232 ft | 26 kts | 317° |
| 2026-02-18 21:42 | 50.87221 | 7.12280 | 232 ft | 18 kts | 355° |
| 2026-02-18 21:42 | 50.87341 | 7.12332 | 232 ft | 19 kts | 18° |
| 2026-02-18 21:42 | 50.87471 | 7.12398 | 232 ft | 18 kts | 17° |
| 2026-02-18 21:43 | 50.87533 | 7.12429 | 232 ft | 7 kts | 21° |
| 2026-02-18 21:43 | 50.87575 | 7.12452 | 232 ft | 7 kts | 18° |
| 2026-02-18 21:43 | 50.87625 | 7.12477 | 232 ft | 9 kts | 18° |
| 2026-02-18 21:43 | 50.87689 | 7.12510 | 232 ft | 10 kts | 18° |
| 2026-02-18 21:44 | 50.87718 | 7.12465 | 232 ft | 7 kts | 287° |
| 2026-02-18 21:44 | 50.87734 | 7.12390 | 234 ft | 0 kts | 289° |